sensor_id;sensor_type;location;lat;lon;timestamp;temperature;humidity
3281;DHT22;1652;51.318;6.202;2023-04-15T00:01:50;7.00;99.90
3281;DHT22;1652;51.318;6.202;2023-04-15T00:04:18;7.00;99.90
3281;DHT22;1652;51.318;6.202;2023-04-15T00:06:52;6.90;99.90
3281;DHT22;1652;51.318;6.202;2023-04-15T00:09:20;6.90;99.90
3281;DHT22;1652;51.318;6.202;2023-04-15T00:11:47;6.90;99.90
3281;DHT22;1652;51.318;6.202;2023-04-15T00:14:13;6.80;99.90
3281;DHT22;1652;51.318;6.202;2023-04-15T00:16:41;6.80;99.90
3281;DHT22;1652;51.318;6.202;2023-04-15T00:19:08;6.90;99.90
3281;DHT22;1652;51.318;6.202;2023-04-15T00:21:35;7.20;99.90
3281;DHT22;1652;51.318;6.202;2023-04-15T00:24:02;7.40;99.90
3281;DHT22;1652;51.318;6.202;2023-04-15T00:26:29;7.40;99.90
3281;DHT22;1652;51.318;6.202;2023-04-15T00:28:56;7.20;99.90
3281;DHT22;1652;51.318;6.202;2023-04-15T00:31:24;7.00;99.90
3281;DHT22;1652;51.318;6.202;2023-04-15T00:33:51;6.90;99.90
3281;DHT22;1652;51.318;6.202;2023-04-15T00:36:18;7.00;99.90
3281;DHT22;1652;51.318;6.202;2023-04-15T00:38:45;7.20;99.90
3281;DHT22;1652;51.318;6.202;2023-04-15T00:41:12;7.40;99.90
3281;DHT22;1652;51.318;6.202;2023-04-15T00:43:39;7.40;99.90
3281;DHT22;1652;51.318;6.202;2023-04-15T00:46:06;7.40;99.90
3281;DHT22;1652;51.318;6.202;2023-04-15T00:48:35;7.60;99.90
3281;DHT22;1652;51.318;6.202;2023-04-15T00:51:02;7.50;99.90
3281;DHT22;1652;51.318;6.202;2023-04-15T00:53:30;7.30;99.90
3281;DHT22;1652;51.318;6.202;2023-04-15T00:55:56;7.10;99.90
3281;DHT22;1652;51.318;6.202;2023-04-15T00:58:24;7.00;99.90
3281;DHT22;1652;51.318;6.202;2023-04-15T01:00:51;7.00;99.90
3281;DHT22;1652;51.318;6.202;2023-04-15T01:03:20;7.00;99.90
3281;DHT22;1652;51.318;6.202;2023-04-15T01:05:47;6.90;99.90
3281;DHT22;1652;51.318;6.202;2023-04-15T01:08:14;6.80;99.90
3281;DHT22;1652;51.318;6.202;2023-04-15T01:10:41;6.60;99.90
3281;DHT22;1652;51.318;6.202;2023-04-15T01:13:08;6.40;99.90
3281;DHT22;1652;51.318;6.202;2023-04-15T01:15:35;6.30;99.90
3281;DHT22;1652;51.318;6.202;2023-04-15T01:18:02;6.20;99.90
3281;DHT22;1652;51.318;6.202;2023-04-15T01:20:29;6.10;99.90
3281;DHT22;1652;51.318;6.202;2023-04-15T01:22:56;6.10;99.90
3281;DHT22;1652;51.318;6.202;2023-04-15T01:25:30;6.00;99.90
3281;DHT22;1652;51.318;6.202;2023-04-15T01:27:58;5.90;99.90
3281;DHT22;1652;51.318;6.202;2023-04-15T01:30:26;6.00;99.90
3281;DHT22;1652;51.318;6.202;2023-04-15T01:32:53;6.10;99.90
3281;DHT22;1652;51.318;6.202;2023-04-15T01:35:20;6.30;99.90
3281;DHT22;1652;51.318;6.202;2023-04-15T01:37:47;6.70;99.90
3281;DHT22;1652;51.318;6.202;2023-04-15T01:40:15;6.80;99.90
3281;DHT22;1652;51.318;6.202;2023-04-15T01:42:42;6.90;99.90
3281;DHT22;1652;51.318;6.202;2023-04-15T01:45:09;6.90;99.90
3281;DHT22;1652;51.318;6.202;2023-04-15T01:47:36;6.90;99.90
3281;DHT22;1652;51.318;6.202;2023-04-15T01:50:03;6.90;99.90
3281;DHT22;1652;51.318;6.202;2023-04-15T01:52:30;6.90;99.90
3281;DHT22;1652;51.318;6.202;2023-04-15T01:54:57;6.90;99.90
3281;DHT22;1652;51.318;6.202;2023-04-15T01:57:24;6.90;99.90
3281;DHT22;1652;51.318;6.202;2023-04-15T01:59:51;6.70;99.90
3281;DHT22;1652;51.318;6.202;2023-04-15T02:02:18;6.70;99.90
3281;DHT22;1652;51.318;6.202;2023-04-15T02:04:46;6.70;99.90
3281;DHT22;1652;51.318;6.202;2023-04-15T02:07:12;6.60;99.90
3281;DHT22;1652;51.318;6.202;2023-04-15T02:09:39;6.30;99.90
3281;DHT22;1652;51.318;6.202;2023-04-15T02:12:06;6.20;99.90
3281;DHT22;1652;51.318;6.202;2023-04-15T02:14:33;6.00;99.90
3281;DHT22;1652;51.318;6.202;2023-04-15T02:17:00;5.90;99.90
3281;DHT22;1652;51.318;6.202;2023-04-15T02:19:35;6.10;99.90
3281;DHT22;1652;51.318;6.202;2023-04-15T02:22:02;6.40;99.90
3281;DHT22;1652;51.318;6.202;2023-04-15T02:24:29;6.60;99.90
3281;DHT22;1652;51.318;6.202;2023-04-15T02:26:56;6.70;99.90
3281;DHT22;1652;51.318;6.202;2023-04-15T02:29:23;6.60;99.90
3281;DHT22;1652;51.318;6.202;2023-04-15T02:31:50;6.40;99.90
3281;DHT22;1652;51.318;6.202;2023-04-15T02:34:17;6.50;99.90
3281;DHT22;1652;51.318;6.202;2023-04-15T02:36:44;6.40;99.90
3281;DHT22;1652;51.318;6.202;2023-04-15T02:39:13;6.30;99.90
3281;DHT22;1652;51.318;6.202;2023-04-15T02:41:42;6.20;99.90
3281;DHT22;1652;51.318;6.202;2023-04-15T02:44:09;5.90;99.90
3281;DHT22;1652;51.318;6.202;2023-04-15T02:46:38;5.70;99.90
3281;DHT22;1652;51.318;6.202;2023-04-15T02:49:06;5.60;99.90
3281;DHT22;1652;51.318;6.202;2023-04-15T02:51:34;5.60;99.90
3281;DHT22;1652;51.318;6.202;2023-04-15T02:54:01;5.70;99.90
3281;DHT22;1652;51.318;6.202;2023-04-15T02:56:28;5.50;99.90
3281;DHT22;1652;51.318;6.202;2023-04-15T02:58:56;5.50;99.90
3281;DHT22;1652;51.318;6.202;2023-04-15T03:01:24;5.50;99.90
3281;DHT22;1652;51.318;6.202;2023-04-15T03:03:51;5.40;99.90
3281;DHT22;1652;51.318;6.202;2023-04-15T03:06:18;5.40;99.90
3281;DHT22;1652;51.318;6.202;2023-04-15T03:08:45;5.40;99.90
3281;DHT22;1652;51.318;6.202;2023-04-15T03:11:13;5.30;99.90
3281;DHT22;1652;51.318;6.202;2023-04-15T03:13:40;5.30;99.90
3281;DHT22;1652;51.318;6.202;2023-04-15T03:16:09;5.40;99.90
3281;DHT22;1652;51.318;6.202;2023-04-15T03:18:36;5.40;99.90
3281;DHT22;1652;51.318;6.202;2023-04-15T03:21:03;5.60;99.90
3281;DHT22;1652;51.318;6.202;2023-04-15T03:23:30;5.80;99.90
3281;DHT22;1652;51.318;6.202;2023-04-15T03:26:01;6.00;99.90
3281;DHT22;1652;51.318;6.202;2023-04-15T03:28:28;6.00;99.90
3281;DHT22;1652;51.318;6.202;2023-04-15T03:30:55;6.00;99.90
3281;DHT22;1652;51.318;6.202;2023-04-15T03:33:22;5.90;99.90
3281;DHT22;1652;51.318;6.202;2023-04-15T03:35:50;5.80;99.90
3281;DHT22;1652;51.318;6.202;2023-04-15T03:38:17;6.00;99.90
3281;DHT22;1652;51.318;6.202;2023-04-15T03:40:45;6.10;99.90
3281;DHT22;1652;51.318;6.202;2023-04-15T03:43:12;6.10;99.90
3281;DHT22;1652;51.318;6.202;2023-04-15T03:45:39;6.00;99.90
3281;DHT22;1652;51.318;6.202;2023-04-15T03:48:06;5.90;99.90
3281;DHT22;1652;51.318;6.202;2023-04-15T03:50:43;6.00;99.90
3281;DHT22;1652;51.318;6.202;2023-04-15T03:53:10;6.10;99.90
3281;DHT22;1652;51.318;6.202;2023-04-15T03:55:37;6.20;99.90
3281;DHT22;1652;51.318;6.202;2023-04-15T03:58:04;6.20;99.90
3281;DHT22;1652;51.318;6.202;2023-04-15T04:00:31;6.20;99.90
3281;DHT22;1652;51.318;6.202;2023-04-15T04:02:58;6.20;99.90
3281;DHT22;1652;51.318;6.202;2023-04-15T04:05:25;6.20;99.90
3281;DHT22;1652;51.318;6.202;2023-04-15T04:07:52;6.20;99.90
3281;DHT22;1652;51.318;6.202;2023-04-15T04:10:19;6.20;99.90
3281;DHT22;1652;51.318;6.202;2023-04-15T04:12:45;6.20;99.90
3281;DHT22;1652;51.318;6.202;2023-04-15T04:15:12;6.20;99.90
3281;DHT22;1652;51.318;6.202;2023-04-15T04:17:39;6.30;99.90
3281;DHT22;1652;51.318;6.202;2023-04-15T04:20:07;6.30;99.90
3281;DHT22;1652;51.318;6.202;2023-04-15T04:22:37;6.30;99.90
3281;DHT22;1652;51.318;6.202;2023-04-15T04:25:06;6.30;99.90
3281;DHT22;1652;51.318;6.202;2023-04-15T04:27:34;6.30;99.90
3281;DHT22;1652;51.318;6.202;2023-04-15T04:30:01;6.30;99.90
3281;DHT22;1652;51.318;6.202;2023-04-15T04:32:28;6.30;99.90
3281;DHT22;1652;51.318;6.202;2023-04-15T04:34:55;6.30;99.90
3281;DHT22;1652;51.318;6.202;2023-04-15T04:37:22;6.30;99.90
3281;DHT22;1652;51.318;6.202;2023-04-15T04:39:50;6.20;99.90
3281;DHT22;1652;51.318;6.202;2023-04-15T04:42:17;6.20;99.90
3281;DHT22;1652;51.318;6.202;2023-04-15T04:44:43;6.30;99.90
3281;DHT22;1652;51.318;6.202;2023-04-15T04:47:10;6.20;99.90
3281;DHT22;1652;51.318;6.202;2023-04-15T04:49:37;6.30;99.90
3281;DHT22;1652;51.318;6.202;2023-04-15T04:52:04;6.30;99.90
3281;DHT22;1652;51.318;6.202;2023-04-15T04:54:31;6.30;99.90
3281;DHT22;1652;51.318;6.202;2023-04-15T04:56:58;6.30;99.90
3281;DHT22;1652;51.318;6.202;2023-04-15T04:59:25;6.40;99.90
3281;DHT22;1652;51.318;6.202;2023-04-15T05:01:52;6.40;99.90
3281;DHT22;1652;51.318;6.202;2023-04-15T05:04:19;6.40;99.90
3281;DHT22;1652;51.318;6.202;2023-04-15T05:06:46;6.40;99.90
3281;DHT22;1652;51.318;6.202;2023-04-15T05:09:13;6.40;99.90
3281;DHT22;1652;51.318;6.202;2023-04-15T05:11:40;6.40;99.90
3281;DHT22;1652;51.318;6.202;2023-04-15T05:14:07;6.40;99.90
3281;DHT22;1652;51.318;6.202;2023-04-15T05:16:33;6.50;99.90
3281;DHT22;1652;51.318;6.202;2023-04-15T05:19:00;6.60;99.90
3281;DHT22;1652;51.318;6.202;2023-04-15T05:21:28;6.60;99.90
3281;DHT22;1652;51.318;6.202;2023-04-15T05:23:54;6.70;99.90
3281;DHT22;1652;51.318;6.202;2023-04-15T05:26:21;6.80;99.90
3281;DHT22;1652;51.318;6.202;2023-04-15T05:28:49;6.90;99.90
3281;DHT22;1652;51.318;6.202;2023-04-15T05:31:16;7.00;99.90
3281;DHT22;1652;51.318;6.202;2023-04-15T05:33:43;7.00;99.90
3281;DHT22;1652;51.318;6.202;2023-04-15T05:36:10;7.20;99.90
3281;DHT22;1652;51.318;6.202;2023-04-15T05:38:37;7.30;99.90
3281;DHT22;1652;51.318;6.202;2023-04-15T05:41:04;7.50;99.90
3281;DHT22;1652;51.318;6.202;2023-04-15T05:43:31;7.60;99.90
3281;DHT22;1652;51.318;6.202;2023-04-15T05:45:58;7.70;99.90
3281;DHT22;1652;51.318;6.202;2023-04-15T05:48:25;7.80;99.90
3281;DHT22;1652;51.318;6.202;2023-04-15T05:50:52;7.90;99.90
3281;DHT22;1652;51.318;6.202;2023-04-15T05:53:19;8.00;99.90
3281;DHT22;1652;51.318;6.202;2023-04-15T05:55:46;8.40;99.90
3281;DHT22;1652;51.318;6.202;2023-04-15T05:58:13;8.80;99.90
3281;DHT22;1652;51.318;6.202;2023-04-15T06:00:40;9.20;99.90
3281;DHT22;1652;51.318;6.202;2023-04-15T06:03:06;9.40;99.90
3281;DHT22;1652;51.318;6.202;2023-04-15T06:05:33;9.70;99.90
3281;DHT22;1652;51.318;6.202;2023-04-15T06:08:00;9.90;99.90
3281;DHT22;1652;51.318;6.202;2023-04-15T06:10:27;9.70;99.90
3281;DHT22;1652;51.318;6.202;2023-04-15T06:12:54;9.40;99.90
3281;DHT22;1652;51.318;6.202;2023-04-15T06:15:21;9.30;99.90
3281;DHT22;1652;51.318;6.202;2023-04-15T06:17:48;9.30;99.90
3281;DHT22;1652;51.318;6.202;2023-04-15T06:20:15;9.20;99.90
3281;DHT22;1652;51.318;6.202;2023-04-15T06:22:42;9.20;99.90
3281;DHT22;1652;51.318;6.202;2023-04-15T06:25:09;9.30;99.90
3281;DHT22;1652;51.318;6.202;2023-04-15T06:27:36;9.50;99.90
3281;DHT22;1652;51.318;6.202;2023-04-15T06:30:03;9.70;99.90
3281;DHT22;1652;51.318;6.202;2023-04-15T06:32:31;9.80;99.90
3281;DHT22;1652;51.318;6.202;2023-04-15T06:34:58;9.90;99.90
3281;DHT22;1652;51.318;6.202;2023-04-15T06:37:25;9.80;99.90
3281;DHT22;1652;51.318;6.202;2023-04-15T06:39:52;9.80;99.90
3281;DHT22;1652;51.318;6.202;2023-04-15T06:42:19;9.80;99.90
3281;DHT22;1652;51.318;6.202;2023-04-15T06:44:46;9.70;99.90
3281;DHT22;1652;51.318;6.202;2023-04-15T06:47:13;9.60;99.90
3281;DHT22;1652;51.318;6.202;2023-04-15T06:49:40;9.60;99.90
3281;DHT22;1652;51.318;6.202;2023-04-15T06:52:09;9.80;99.90
3281;DHT22;1652;51.318;6.202;2023-04-15T06:54:36;9.60;99.90
3281;DHT22;1652;51.318;6.202;2023-04-15T06:57:03;9.70;99.90
3281;DHT22;1652;51.318;6.202;2023-04-15T06:59:30;9.70;99.90
3281;DHT22;1652;51.318;6.202;2023-04-15T07:01:57;9.60;99.90
3281;DHT22;1652;51.318;6.202;2023-04-15T07:04:24;9.50;99.90
3281;DHT22;1652;51.318;6.202;2023-04-15T07:06:51;9.50;99.90
3281;DHT22;1652;51.318;6.202;2023-04-15T07:09:18;9.50;99.90
3281;DHT22;1652;51.318;6.202;2023-04-15T07:11:45;9.60;99.90
3281;DHT22;1652;51.318;6.202;2023-04-15T07:14:12;9.50;99.90
3281;DHT22;1652;51.318;6.202;2023-04-15T07:16:39;9.70;99.90
3281;DHT22;1652;51.318;6.202;2023-04-15T07:19:05;9.90;99.90
3281;DHT22;1652;51.318;6.202;2023-04-15T07:21:33;10.00;99.90
3281;DHT22;1652;51.318;6.202;2023-04-15T07:23:59;10.10;99.90
3281;DHT22;1652;51.318;6.202;2023-04-15T07:26:26;10.00;99.90
3281;DHT22;1652;51.318;6.202;2023-04-15T07:28:53;9.90;99.90
3281;DHT22;1652;51.318;6.202;2023-04-15T07:31:20;10.20;99.90
3281;DHT22;1652;51.318;6.202;2023-04-15T07:33:47;10.30;99.90
3281;DHT22;1652;51.318;6.202;2023-04-15T07:36:14;10.40;99.90
3281;DHT22;1652;51.318;6.202;2023-04-15T07:38:41;10.40;99.90
3281;DHT22;1652;51.318;6.202;2023-04-15T07:41:08;10.50;99.90
3281;DHT22;1652;51.318;6.202;2023-04-15T07:43:36;10.30;99.90
3281;DHT22;1652;51.318;6.202;2023-04-15T07:46:03;10.30;99.90
3281;DHT22;1652;51.318;6.202;2023-04-15T07:48:30;10.30;99.90
3281;DHT22;1652;51.318;6.202;2023-04-15T07:50:57;10.40;99.90
3281;DHT22;1652;51.318;6.202;2023-04-15T07:53:24;10.70;99.90
3281;DHT22;1652;51.318;6.202;2023-04-15T07:55:51;11.00;99.90
3281;DHT22;1652;51.318;6.202;2023-04-15T07:58:18;11.10;99.90
3281;DHT22;1652;51.318;6.202;2023-04-15T08:00:45;11.00;99.90
3281;DHT22;1652;51.318;6.202;2023-04-15T08:03:12;11.10;99.90
3281;DHT22;1652;51.318;6.202;2023-04-15T08:05:39;11.20;99.90
3281;DHT22;1652;51.318;6.202;2023-04-15T08:08:06;11.10;99.90
3281;DHT22;1652;51.318;6.202;2023-04-15T08:10:34;11.00;99.90
3281;DHT22;1652;51.318;6.202;2023-04-15T08:13:00;11.30;99.90
3281;DHT22;1652;51.318;6.202;2023-04-15T08:15:27;11.40;99.90
3281;DHT22;1652;51.318;6.202;2023-04-15T08:17:54;11.60;99.90
3281;DHT22;1652;51.318;6.202;2023-04-15T08:20:21;11.70;99.90
3281;DHT22;1652;51.318;6.202;2023-04-15T08:22:48;11.90;99.90
3281;DHT22;1652;51.318;6.202;2023-04-15T08:25:17;12.00;99.90
3281;DHT22;1652;51.318;6.202;2023-04-15T08:27:45;12.10;99.90
3281;DHT22;1652;51.318;6.202;2023-04-15T08:30:12;12.20;99.90
3281;DHT22;1652;51.318;6.202;2023-04-15T08:32:41;12.70;99.90
3281;DHT22;1652;51.318;6.202;2023-04-15T08:35:08;12.70;99.90
3281;DHT22;1652;51.318;6.202;2023-04-15T08:37:36;12.70;99.90
3281;DHT22;1652;51.318;6.202;2023-04-15T08:40:03;12.80;99.90
3281;DHT22;1652;51.318;6.202;2023-04-15T08:42:31;12.60;99.90
3281;DHT22;1652;51.318;6.202;2023-04-15T08:45:03;12.10;99.90
3281;DHT22;1652;51.318;6.202;2023-04-15T08:47:30;11.80;99.90
3281;DHT22;1652;51.318;6.202;2023-04-15T08:49:58;11.80;99.90
3281;DHT22;1652;51.318;6.202;2023-04-15T08:52:26;11.90;99.90
3281;DHT22;1652;51.318;6.202;2023-04-15T08:54:56;12.00;99.90
3281;DHT22;1652;51.318;6.202;2023-04-15T08:57:28;12.30;99.90
3281;DHT22;1652;51.318;6.202;2023-04-15T08:59:55;12.50;99.90
3281;DHT22;1652;51.318;6.202;2023-04-15T09:02:23;12.50;99.90
3281;DHT22;1652;51.318;6.202;2023-04-15T09:04:52;12.40;99.90
3281;DHT22;1652;51.318;6.202;2023-04-15T09:07:19;12.40;99.90
3281;DHT22;1652;51.318;6.202;2023-04-15T09:09:47;12.60;99.90
3281;DHT22;1652;51.318;6.202;2023-04-15T09:12:14;12.80;99.90
3281;DHT22;1652;51.318;6.202;2023-04-15T09:14:44;12.90;99.90
3281;DHT22;1652;51.318;6.202;2023-04-15T09:17:11;12.80;99.90
3281;DHT22;1652;51.318;6.202;2023-04-15T09:19:38;12.90;99.90
3281;DHT22;1652;51.318;6.202;2023-04-15T09:22:05;12.90;99.90
3281;DHT22;1652;51.318;6.202;2023-04-15T09:24:37;12.90;99.90
3281;DHT22;1652;51.318;6.202;2023-04-15T09:27:05;12.90;99.90
3281;DHT22;1652;51.318;6.202;2023-04-15T09:29:32;12.90;99.90
3281;DHT22;1652;51.318;6.202;2023-04-15T09:32:09;13.00;99.90
3281;DHT22;1652;51.318;6.202;2023-04-15T09:34:36;13.20;99.90
3281;DHT22;1652;51.318;6.202;2023-04-15T09:37:04;13.50;99.90
3281;DHT22;1652;51.318;6.202;2023-04-15T09:39:50;13.50;99.90
3281;DHT22;1652;51.318;6.202;2023-04-15T09:42:18;13.60;99.90
3281;DHT22;1652;51.318;6.202;2023-04-15T09:44:50;13.40;99.90
3281;DHT22;1652;51.318;6.202;2023-04-15T09:47:29;12.90;99.90
3281;DHT22;1652;51.318;6.202;2023-04-15T09:49:57;12.70;99.90
3281;DHT22;1652;51.318;6.202;2023-04-15T09:52:24;12.80;99.90
3281;DHT22;1652;51.318;6.202;2023-04-15T09:54:56;12.90;99.90
3281;DHT22;1652;51.318;6.202;2023-04-15T09:57:24;12.90;99.90
3281;DHT22;1652;51.318;6.202;2023-04-15T09:59:51;12.90;99.90
3281;DHT22;1652;51.318;6.202;2023-04-15T10:02:18;12.90;99.90
3281;DHT22;1652;51.318;6.202;2023-04-15T10:04:48;12.70;99.90
3281;DHT22;1652;51.318;6.202;2023-04-15T10:07:16;12.80;99.90
3281;DHT22;1652;51.318;6.202;2023-04-15T10:09:47;13.00;99.90
3281;DHT22;1652;51.318;6.202;2023-04-15T10:12:18;13.10;99.90
3281;DHT22;1652;51.318;6.202;2023-04-15T10:14:51;13.10;99.90
3281;DHT22;1652;51.318;6.202;2023-04-15T10:17:21;13.20;99.90
3281;DHT22;1652;51.318;6.202;2023-04-15T10:19:48;13.30;99.90
3281;DHT22;1652;51.318;6.202;2023-04-15T10:22:18;13.10;99.90
3281;DHT22;1652;51.318;6.202;2023-04-15T10:24:46;13.10;99.90
3281;DHT22;1652;51.318;6.202;2023-04-15T10:27:15;13.30;99.90
3281;DHT22;1652;51.318;6.202;2023-04-15T10:29:43;13.30;99.90
3281;DHT22;1652;51.318;6.202;2023-04-15T10:32:11;13.40;99.90
3281;DHT22;1652;51.318;6.202;2023-04-15T10:34:39;13.40;99.90
3281;DHT22;1652;51.318;6.202;2023-04-15T10:37:08;13.40;99.90
3281;DHT22;1652;51.318;6.202;2023-04-15T10:42:17;13.30;99.90
3281;DHT22;1652;51.318;6.202;2023-04-15T10:44:49;13.10;99.90
3281;DHT22;1652;51.318;6.202;2023-04-15T10:47:20;13.00;99.90
3281;DHT22;1652;51.318;6.202;2023-04-15T10:49:49;13.10;99.90
3281;DHT22;1652;51.318;6.202;2023-04-15T10:52:22;13.30;99.90
3281;DHT22;1652;51.318;6.202;2023-04-15T10:54:49;13.30;99.90
3281;DHT22;1652;51.318;6.202;2023-04-15T10:57:33;13.50;99.90
3281;DHT22;1652;51.318;6.202;2023-04-15T11:02:44;13.30;99.90
3281;DHT22;1652;51.318;6.202;2023-04-15T11:05:14;13.20;99.90
3281;DHT22;1652;51.318;6.202;2023-04-15T11:07:56;13.10;99.90
3281;DHT22;1652;51.318;6.202;2023-04-15T11:12:53;13.30;99.90
3281;DHT22;1652;51.318;6.202;2023-04-15T11:20:25;13.20;99.90
3281;DHT22;1652;51.318;6.202;2023-04-15T11:22:53;13.20;99.90
3281;DHT22;1652;51.318;6.202;2023-04-15T11:25:39;13.10;99.90
3281;DHT22;1652;51.318;6.202;2023-04-15T11:28:06;13.20;99.90
3281;DHT22;1652;51.318;6.202;2023-04-15T11:30:34;13.20;99.90
3281;DHT22;1652;51.318;6.202;2023-04-15T11:33:04;13.30;99.90
3281;DHT22;1652;51.318;6.202;2023-04-15T11:35:32;13.40;99.90
3281;DHT22;1652;51.318;6.202;2023-04-15T11:38:04;13.60;99.90
3281;DHT22;1652;51.318;6.202;2023-04-15T11:40:31;13.80;99.90
3281;DHT22;1652;51.318;6.202;2023-04-15T11:43:11;13.90;99.90
3281;DHT22;1652;51.318;6.202;2023-04-15T11:45:55;13.80;99.90
3281;DHT22;1652;51.318;6.202;2023-04-15T11:48:31;13.40;99.90
3281;DHT22;1652;51.318;6.202;2023-04-15T11:51:00;13.20;99.90
3281;DHT22;1652;51.318;6.202;2023-04-15T11:53:48;13.10;99.90
3281;DHT22;1652;51.318;6.202;2023-04-15T11:56:20;13.10;99.90
3281;DHT22;1652;51.318;6.202;2023-04-15T11:58:52;13.30;99.90
3281;DHT22;1652;51.318;6.202;2023-04-15T12:01:19;13.40;99.90
3281;DHT22;1652;51.318;6.202;2023-04-15T12:03:46;13.80;99.90
3281;DHT22;1652;51.318;6.202;2023-04-15T12:06:21;13.80;99.90
3281;DHT22;1652;51.318;6.202;2023-04-15T12:11:49;13.90;99.90
3281;DHT22;1652;51.318;6.202;2023-04-15T12:16:49;13.60;99.90
3281;DHT22;1652;51.318;6.202;2023-04-15T12:19:26;13.60;99.90
3281;DHT22;1652;51.318;6.202;2023-04-15T12:21:58;13.60;99.90
3281;DHT22;1652;51.318;6.202;2023-04-15T12:24:26;13.50;99.90
3281;DHT22;1652;51.318;6.202;2023-04-15T12:26:55;13.80;99.90
3281;DHT22;1652;51.318;6.202;2023-04-15T12:29:27;14.00;99.90
3281;DHT22;1652;51.318;6.202;2023-04-15T12:31:56;13.90;99.90
3281;DHT22;1652;51.318;6.202;2023-04-15T12:34:31;13.80;99.90
3281;DHT22;1652;51.318;6.202;2023-04-15T12:37:00;13.90;99.90
3281;DHT22;1652;51.318;6.202;2023-04-15T12:39:30;13.80;99.90
3281;DHT22;1652;51.318;6.202;2023-04-15T12:41:58;13.70;99.90
3281;DHT22;1652;51.318;6.202;2023-04-15T12:44:27;13.70;99.90
3281;DHT22;1652;51.318;6.202;2023-04-15T12:46:54;13.70;99.90
3281;DHT22;1652;51.318;6.202;2023-04-15T12:49:22;13.80;99.90
3281;DHT22;1652;51.318;6.202;2023-04-15T12:51:51;13.60;99.90
3281;DHT22;1652;51.318;6.202;2023-04-15T12:54:18;13.50;99.90
3281;DHT22;1652;51.318;6.202;2023-04-15T12:56:46;13.40;99.90
3281;DHT22;1652;51.318;6.202;2023-04-15T12:59:14;13.50;99.90
3281;DHT22;1652;51.318;6.202;2023-04-15T13:01:41;13.80;99.90
3281;DHT22;1652;51.318;6.202;2023-04-15T13:04:08;13.90;99.90
3281;DHT22;1652;51.318;6.202;2023-04-15T13:06:36;14.20;99.90
3281;DHT22;1652;51.318;6.202;2023-04-15T13:09:04;14.50;99.90
3281;DHT22;1652;51.318;6.202;2023-04-15T13:11:32;14.50;99.90
3281;DHT22;1652;51.318;6.202;2023-04-15T13:14:04;14.50;99.90
3281;DHT22;1652;51.318;6.202;2023-04-15T13:16:33;14.30;99.90
3281;DHT22;1652;51.318;6.202;2023-04-15T13:19:01;14.20;99.90
3281;DHT22;1652;51.318;6.202;2023-04-15T13:21:28;14.30;99.90
3281;DHT22;1652;51.318;6.202;2023-04-15T13:23:57;14.30;99.90
3281;DHT22;1652;51.318;6.202;2023-04-15T13:26:24;14.40;99.90
3281;DHT22;1652;51.318;6.202;2023-04-15T13:28:50;14.30;99.90
3281;DHT22;1652;51.318;6.202;2023-04-15T13:31:17;14.50;99.90
3281;DHT22;1652;51.318;6.202;2023-04-15T13:33:44;14.20;99.90
3281;DHT22;1652;51.318;6.202;2023-04-15T13:36:11;13.90;99.90
3281;DHT22;1652;51.318;6.202;2023-04-15T13:38:38;13.70;99.90
3281;DHT22;1652;51.318;6.202;2023-04-15T13:41:05;13.70;99.90
3281;DHT22;1652;51.318;6.202;2023-04-15T13:43:32;13.50;99.90
3281;DHT22;1652;51.318;6.202;2023-04-15T13:45:59;13.70;99.90
3281;DHT22;1652;51.318;6.202;2023-04-15T13:48:27;13.90;99.90
3281;DHT22;1652;51.318;6.202;2023-04-15T13:50:54;13.80;99.90
3281;DHT22;1652;51.318;6.202;2023-04-15T13:53:21;13.60;99.90
3281;DHT22;1652;51.318;6.202;2023-04-15T13:56:06;13.70;99.90
3281;DHT22;1652;51.318;6.202;2023-04-15T13:58:33;13.80;99.90
3281;DHT22;1652;51.318;6.202;2023-04-15T14:00:59;13.80;99.90
3281;DHT22;1652;51.318;6.202;2023-04-15T14:03:30;13.90;99.90
3281;DHT22;1652;51.318;6.202;2023-04-15T14:05:57;13.80;99.90
3281;DHT22;1652;51.318;6.202;2023-04-15T14:08:25;13.90;99.90
3281;DHT22;1652;51.318;6.202;2023-04-15T14:10:51;13.80;99.90
3281;DHT22;1652;51.318;6.202;2023-04-15T14:13:18;13.60;99.90
3281;DHT22;1652;51.318;6.202;2023-04-15T14:18:22;13.60;99.90
3281;DHT22;1652;51.318;6.202;2023-04-15T14:20:48;13.40;99.90
3281;DHT22;1652;51.318;6.202;2023-04-15T14:23:15;13.40;99.90
3281;DHT22;1652;51.318;6.202;2023-04-15T14:25:42;13.50;99.90
3281;DHT22;1652;51.318;6.202;2023-04-15T14:28:13;13.40;99.90
3281;DHT22;1652;51.318;6.202;2023-04-15T14:30:40;13.50;99.90
3281;DHT22;1652;51.318;6.202;2023-04-15T14:33:07;13.40;99.90
3281;DHT22;1652;51.318;6.202;2023-04-15T14:35:34;13.60;99.90
3281;DHT22;1652;51.318;6.202;2023-04-15T14:38:01;13.40;99.90
3281;DHT22;1652;51.318;6.202;2023-04-15T14:40:28;13.40;99.90
3281;DHT22;1652;51.318;6.202;2023-04-15T14:42:55;13.40;99.90
3281;DHT22;1652;51.318;6.202;2023-04-15T14:45:22;13.20;99.90
3281;DHT22;1652;51.318;6.202;2023-04-15T14:47:48;13.30;99.90
3281;DHT22;1652;51.318;6.202;2023-04-15T14:50:16;13.10;99.90
3281;DHT22;1652;51.318;6.202;2023-04-15T14:52:43;13.10;99.90
3281;DHT22;1652;51.318;6.202;2023-04-15T14:55:11;13.00;99.90
3281;DHT22;1652;51.318;6.202;2023-04-15T14:57:39;13.10;99.90
3281;DHT22;1652;51.318;6.202;2023-04-15T15:00:07;13.30;99.90
3281;DHT22;1652;51.318;6.202;2023-04-15T15:02:37;13.30;99.90
3281;DHT22;1652;51.318;6.202;2023-04-15T15:05:06;13.50;99.90
3281;DHT22;1652;51.318;6.202;2023-04-15T15:07:34;13.50;99.90
3281;DHT22;1652;51.318;6.202;2023-04-15T15:10:03;13.60;99.90
3281;DHT22;1652;51.318;6.202;2023-04-15T15:12:30;13.50;99.90
3281;DHT22;1652;51.318;6.202;2023-04-15T15:14:58;13.50;99.90
3281;DHT22;1652;51.318;6.202;2023-04-15T15:17:24;13.40;99.90
3281;DHT22;1652;51.318;6.202;2023-04-15T15:19:51;13.20;99.90
3281;DHT22;1652;51.318;6.202;2023-04-15T15:22:18;13.30;99.90
3281;DHT22;1652;51.318;6.202;2023-04-15T15:24:47;13.50;99.90
3281;DHT22;1652;51.318;6.202;2023-04-15T15:27:13;13.40;99.90
3281;DHT22;1652;51.318;6.202;2023-04-15T15:29:40;13.40;99.90
3281;DHT22;1652;51.318;6.202;2023-04-15T15:32:07;13.40;99.90
3281;DHT22;1652;51.318;6.202;2023-04-15T15:34:34;13.40;99.90
3281;DHT22;1652;51.318;6.202;2023-04-15T15:37:01;13.30;99.90
3281;DHT22;1652;51.318;6.202;2023-04-15T15:39:28;13.40;99.90
3281;DHT22;1652;51.318;6.202;2023-04-15T15:41:55;13.40;99.90
3281;DHT22;1652;51.318;6.202;2023-04-15T15:44:21;13.30;99.90
3281;DHT22;1652;51.318;6.202;2023-04-15T15:46:49;13.40;99.90
3281;DHT22;1652;51.318;6.202;2023-04-15T15:49:16;13.20;99.90
3281;DHT22;1652;51.318;6.202;2023-04-15T15:51:43;13.10;99.90
3281;DHT22;1652;51.318;6.202;2023-04-15T15:54:11;13.00;99.90
3281;DHT22;1652;51.318;6.202;2023-04-15T15:56:38;13.00;99.90
3281;DHT22;1652;51.318;6.202;2023-04-15T15:59:05;13.00;99.90
3281;DHT22;1652;51.318;6.202;2023-04-15T16:01:32;12.90;99.90
3281;DHT22;1652;51.318;6.202;2023-04-15T16:03:59;12.90;99.90
3281;DHT22;1652;51.318;6.202;2023-04-15T16:06:27;12.80;99.90
3281;DHT22;1652;51.318;6.202;2023-04-15T16:08:54;12.80;99.90
3281;DHT22;1652;51.318;6.202;2023-04-15T16:11:22;12.60;99.90
3281;DHT22;1652;51.318;6.202;2023-04-15T16:13:49;12.60;99.90
3281;DHT22;1652;51.318;6.202;2023-04-15T16:16:15;12.60;99.90
3281;DHT22;1652;51.318;6.202;2023-04-15T16:18:42;12.60;99.90
3281;DHT22;1652;51.318;6.202;2023-04-15T16:21:09;12.60;99.90
3281;DHT22;1652;51.318;6.202;2023-04-15T16:23:36;12.50;99.90
3281;DHT22;1652;51.318;6.202;2023-04-15T16:26:03;12.20;99.90
3281;DHT22;1652;51.318;6.202;2023-04-15T16:28:30;12.00;99.90
3281;DHT22;1652;51.318;6.202;2023-04-15T16:30:57;11.80;99.90
3281;DHT22;1652;51.318;6.202;2023-04-15T16:33:25;11.70;99.90
3281;DHT22;1652;51.318;6.202;2023-04-15T16:35:52;11.60;99.90